createdAt,value
2023-04-04T00:00:19.338Z,14
2023-04-04T00:05:19.334Z,15
2023-04-04T00:10:19.325Z,19
2023-04-04T00:15:19.348Z,16
2023-04-04T00:20:16.353Z,16
2023-04-04T00:25:16.401Z,16
2023-04-04T00:30:19.397Z,13
2023-04-04T00:35:19.317Z,16
2023-04-04T00:40:19.439Z,14
2023-04-04T00:45:19.353Z,12
2023-04-04T00:50:16.368Z,15
2023-04-04T00:55:19.400Z,14
2023-04-04T01:00:19.441Z,13
2023-04-04T01:05:19.326Z,9
2023-04-04T01:10:16.394Z,16
2023-04-04T01:15:19.382Z,10
2023-04-04T01:20:16.444Z,11
2023-04-04T01:25:19.377Z,11
2023-04-04T01:30:19.437Z,13
2023-04-04T01:35:19.361Z,9
2023-04-04T01:40:16.411Z,15
2023-04-04T01:45:16.479Z,11
2023-04-04T01:50:19.447Z,10
2023-04-04T01:55:19.409Z,12
2023-04-04T02:00:19.365Z,8
2023-04-04T02:05:19.370Z,13
2023-04-04T02:10:16.459Z,9
2023-04-04T02:15:16.440Z,12
2023-04-04T02:20:16.557Z,11
2023-04-04T02:25:19.454Z,8
2023-04-04T02:30:19.487Z,7
2023-04-04T02:35:16.472Z,13
2023-04-04T02:40:16.530Z,11
2023-04-04T02:45:19.457Z,9
2023-04-04T02:50:19.428Z,8
2023-04-04T02:55:19.482Z,9
2023-04-04T03:00:16.464Z,9
2023-04-04T03:05:16.480Z,6
2023-04-04T03:10:19.501Z,9
2023-04-04T03:15:16.443Z,9
2023-04-04T03:20:19.442Z,6
2023-04-04T03:25:16.517Z,6
2023-04-04T03:30:19.509Z,10
2023-04-04T03:35:19.506Z,8
2023-04-04T03:40:19.823Z,6
2023-04-04T03:45:16.557Z,7
2023-04-04T03:50:16.727Z,11
2023-04-04T03:55:16.358Z,4
2023-04-04T04:00:18.735Z,4
2023-04-04T04:05:15.848Z,7
2023-04-04T04:10:18.961Z,4
2023-04-04T04:15:15.812Z,3
2023-04-04T04:20:16.025Z,2
2023-04-04T04:25:18.743Z,4
2023-04-04T04:30:18.696Z,3
2023-04-04T04:35:18.938Z,2
2023-04-04T04:40:15.752Z,1
2023-04-04T04:45:19.127Z,3
2023-04-04T04:50:18.761Z,2
2023-04-04T04:55:18.835Z,2
2023-04-04T05:00:15.827Z,4
2023-04-04T05:05:18.818Z,7
2023-04-04T05:10:18.804Z,5
2023-04-04T05:15:18.766Z,5
2023-04-04T05:20:15.820Z,5
2023-04-04T05:25:15.805Z,5
2023-04-04T05:30:15.838Z,7
2023-04-04T05:35:18.986Z,6
2023-04-04T05:40:18.846Z,5
2023-04-04T05:45:18.751Z,4
2023-04-04T05:50:15.827Z,4
2023-04-04T05:55:18.817Z,5
2023-04-04T06:00:18.879Z,4
2023-04-04T06:05:18.784Z,5
2023-04-04T06:10:18.812Z,2
2023-04-04T06:15:18.817Z,6
2023-04-04T06:20:15.888Z,5
2023-04-04T06:25:15.908Z,4
2023-04-04T06:30:18.845Z,6
2023-04-04T06:35:20.340Z,6
2023-04-04T06:40:15.710Z,5
2023-04-04T06:45:18.825Z,6
2023-04-04T06:50:15.917Z,2
2023-04-04T06:55:15.871Z,4
2023-04-04T07:00:18.833Z,2
2023-04-04T07:05:18.828Z,5
2023-04-04T07:10:18.849Z,5
2023-04-04T07:15:15.700Z,4
2023-04-04T07:20:15.669Z,5
2023-04-04T07:25:15.896Z,6
2023-04-04T07:30:15.901Z,7
2023-04-04T07:35:18.856Z,5
2023-04-04T07:40:18.828Z,6
2023-04-04T07:45:18.824Z,7
2023-04-04T07:50:15.864Z,7
2023-04-04T07:55:16.830Z,6
2023-04-04T08:00:15.878Z,7
2023-04-04T08:05:18.898Z,7
2023-04-04T08:10:18.957Z,6
2023-04-04T08:15:18.885Z,7
2023-04-04T08:20:18.828Z,4
2023-04-04T08:25:18.819Z,5
2023-04-04T08:30:15.974Z,2
2023-04-04T08:35:15.857Z,1
2023-04-04T08:40:15.934Z,1
2023-04-04T08:45:18.927Z,3
2023-04-04T08:50:18.877Z,1
2023-04-04T08:55:18.994Z,2
2023-04-04T09:00:18.888Z,3
2023-04-04T09:05:15.898Z,2
2023-04-04T09:10:15.921Z,1
2023-04-04T09:15:15.902Z,2
2023-04-04T09:20:15.925Z,2
2023-04-04T09:25:19.092Z,4
2023-04-04T09:30:18.945Z,3
2023-04-04T09:35:18.913Z,4
2023-04-04T09:40:19.044Z,3
2023-04-04T09:45:29.394Z,3
2023-04-04T09:50:15.962Z,2
2023-04-04T09:55:18.913Z,2
2023-04-04T10:00:16.034Z,2
2023-04-04T10:05:15.959Z,2
2023-04-04T10:10:15.938Z,4
2023-04-04T10:15:15.939Z,2
2023-04-04T10:20:19.017Z,1
2023-04-04T10:25:18.910Z,2
2023-04-04T10:30:18.885Z,2
2023-04-04T10:35:15.966Z,2
2023-04-04T10:40:18.952Z,2
2023-04-04T10:45:21.124Z,3
2023-04-04T10:50:16.016Z,3
2023-04-04T10:55:15.982Z,2
2023-04-04T11:00:16.048Z,3
2023-04-04T11:05:15.818Z,4
2023-04-04T11:10:19.099Z,2
2023-04-04T11:15:15.814Z,4
2023-04-04T11:20:18.976Z,5
2023-04-04T11:25:18.938Z,4
2023-04-04T11:30:16.023Z,4
2023-04-04T11:35:19.046Z,4
2023-04-04T11:40:18.980Z,3
2023-04-04T11:45:18.965Z,3
2023-04-04T11:50:19.034Z,3
2023-04-04T11:55:15.960Z,3
2023-04-04T12:00:16.034Z,3
2023-04-04T12:05:19.034Z,3
2023-04-04T12:10:19.044Z,3
2023-04-04T12:15:18.989Z,2
2023-04-04T12:20:19.069Z,4
2023-04-04T12:25:16.080Z,3
2023-04-04T12:30:16.065Z,3
2023-04-04T12:35:15.824Z,4
2023-04-04T12:40:16.106Z,3
2023-04-04T12:45:19.129Z,3
2023-04-04T12:50:19.050Z,3
2023-04-04T12:55:18.965Z,3
2023-04-04T13:00:18.984Z,4
2023-04-04T13:05:16.030Z,4
2023-04-04T13:10:19.053Z,4
2023-04-04T13:15:16.074Z,6
2023-04-04T13:20:19.125Z,3
2023-04-04T13:25:18.999Z,4
2023-04-04T13:30:19.058Z,4
2023-04-04T13:35:19.057Z,3
2023-04-04T13:40:19.099Z,4
2023-04-04T13:45:16.171Z,4
2023-04-04T13:50:16.050Z,3
2023-04-04T13:55:16.106Z,2
2023-04-04T14:00:16.081Z,5
2023-04-04T14:05:16.118Z,4
2023-04-04T14:10:16.105Z,5
2023-04-04T14:15:16.112Z,5
2023-04-04T14:20:19.079Z,2
2023-04-04T14:25:19.065Z,5
2023-04-04T14:30:19.176Z,4
2023-04-04T14:35:19.087Z,4
2023-04-04T14:40:16.156Z,5
2023-04-04T14:45:19.096Z,7
2023-04-04T14:50:16.130Z,6
2023-04-04T14:55:16.176Z,5
2023-04-04T15:00:16.247Z,5
2023-04-04T15:05:19.087Z,6
2023-04-04T15:10:16.128Z,4
2023-04-04T15:15:19.711Z,5
2023-04-04T15:20:16.183Z,6
2023-04-04T15:25:19.116Z,6
2023-04-04T15:30:16.277Z,8
2023-04-04T15:35:19.133Z,10
2023-04-04T15:40:19.120Z,10
2023-04-04T15:45:16.184Z,11
2023-04-04T15:50:15.945Z,12
2023-04-04T15:55:16.258Z,10
2023-04-04T16:00:19.167Z,7
2023-04-04T16:05:16.167Z,11
2023-04-04T16:10:16.149Z,13
2023-04-04T16:15:16.151Z,11
2023-04-04T16:20:19.264Z,12
2023-04-04T16:25:16.066Z,11
2023-04-04T16:30:16.415Z,12
2023-04-04T16:35:19.541Z,13
2023-04-04T16:40:19.613Z,12
2023-04-04T16:45:16.591Z,13
2023-04-04T16:50:16.157Z,14
2023-04-04T16:55:19.228Z,12
2023-04-04T17:00:19.312Z,14
2023-04-04T17:05:19.213Z,13
2023-04-04T17:10:16.271Z,14
2023-04-04T17:15:17.811Z,13
2023-04-04T17:20:19.504Z,12
2023-04-04T17:25:19.318Z,13
2023-04-04T17:30:16.185Z,16
2023-04-04T17:35:19.289Z,13
2023-04-04T17:40:16.289Z,12
2023-04-04T17:45:19.237Z,15
2023-04-04T17:50:16.453Z,14
2023-04-04T17:55:19.208Z,15
2023-04-04T18:00:19.230Z,13
2023-04-04T18:05:16.208Z,17
2023-04-04T18:10:16.244Z,17
2023-04-04T18:15:19.219Z,15
2023-04-04T18:20:31.806Z,12
2023-04-04T18:25:19.243Z,16
2023-04-04T18:30:19.166Z,15
2023-04-04T18:35:16.457Z,15
2023-04-04T18:40:19.284Z,11
2023-04-04T18:45:20.947Z,18
2023-04-04T18:50:19.433Z,13
2023-04-04T18:55:19.185Z,16
2023-04-04T19:00:16.443Z,12
2023-04-04T19:05:16.217Z,11
2023-04-04T19:10:16.310Z,11
2023-04-04T19:15:16.338Z,16
2023-04-04T19:20:19.290Z,16
2023-04-04T19:25:19.267Z,15
2023-04-04T19:30:19.197Z,19
2023-04-04T19:35:16.302Z,14
2023-04-04T19:40:19.212Z,16
2023-04-04T19:45:16.140Z,18
2023-04-04T19:50:19.273Z,13
2023-04-04T19:55:19.303Z,13
2023-04-04T20:00:19.276Z,13
2023-04-04T20:05:19.280Z,15
2023-04-04T20:10:19.225Z,8
2023-04-04T20:15:16.285Z,11
2023-04-04T20:20:19.305Z,10
2023-04-04T20:25:19.216Z,15
2023-04-04T20:30:19.279Z,9
2023-04-04T20:35:16.371Z,13
2023-04-04T20:40:19.255Z,13
2023-04-04T20:45:19.257Z,11
2023-04-04T20:50:16.276Z,12
2023-04-04T20:55:19.295Z,13
2023-04-04T21:00:19.310Z,11
2023-04-04T21:05:16.319Z,11
2023-04-04T21:10:19.323Z,8
2023-04-04T21:15:16.292Z,12
2023-04-04T21:20:16.296Z,14
2023-04-04T21:25:19.303Z,14
2023-04-04T21:30:16.308Z,8
2023-04-04T21:35:19.321Z,11
2023-04-04T21:40:19.298Z,11
2023-04-04T21:45:16.575Z,11
2023-04-04T21:50:19.262Z,13
2023-04-04T21:55:20.974Z,14
2023-04-04T22:00:16.308Z,14
2023-04-04T22:05:18.152Z,8
2023-04-04T22:10:19.345Z,8
2023-04-04T22:15:19.234Z,10
2023-04-04T22:20:16.382Z,17
2023-04-04T22:25:16.344Z,14
2023-04-04T22:30:19.296Z,12
2023-04-04T22:35:19.320Z,10
2023-04-04T22:40:19.310Z,8
2023-04-04T22:45:19.327Z,7
2023-04-04T22:50:19.355Z,7
2023-04-04T22:55:19.259Z,6
2023-04-04T23:00:16.221Z,7
2023-04-04T23:05:16.313Z,7
2023-04-04T23:10:19.283Z,6
2023-04-04T23:15:19.337Z,9
2023-04-04T23:20:19.355Z,10
2023-04-04T23:25:16.350Z,10
2023-04-04T23:30:16.378Z,10
2023-04-04T23:35:19.366Z,10
2023-04-04T23:40:16.405Z,9
2023-04-04T23:45:16.441Z,9
2023-04-04T23:50:19.377Z,7
2023-04-04T23:55:16.337Z,7
